Time;durP1;ratioP1;P1;durP2;ratioP2;P2;SDS_P1;SDS_P2;PMS_P1;PMS_P2;Temp;Humidity;BMP_temperature;BMP_pressure;BME280_temperature;BME280_humidity;BME280_pressure;Samples;Min_cycle;Max_cycle;Signal;HPM_P1;HPM_P2
2023/01/02 00:00:46;;;;;;;16.60;1.75;;;;;;;;;;5048719;28;20021;-73
2023/01/02 00:03:12;;;;;;;6.10;1.33;;;;;;;;;;5048838;28;20487;-73
2023/01/02 00:05:38;;;;;;;5.93;1.42;;;;;;;;;;5048952;28;20036;-73
2023/01/02 00:08:04;;;;;;;4.47;1.73;;;;;;;;;;5048506;28;20402;-73
2023/01/02 00:10:30;;;;;;;0.90;0.82;;;;;;;;;;5048415;28;20077;-73
2023/01/02 00:12:56;;;;;;;3.20;1.70;;;;;;;;;;5048617;28;20515;-73
2023/01/02 00:15:22;;;;;;;7.53;1.75;;;;;;;;;;5047797;28;20028;-73
2023/01/02 00:17:48;;;;;;;4.97;2.10;;;;;;;;;;5048778;28;20024;-73
2023/01/02 00:20:14;;;;;;;8.45;1.17;;;;;;;;;;5048263;28;20025;-73
2023/01/02 00:22:40;;;;;;;13.82;2.28;;;;;;;;;;5048392;28;20047;-73
2023/01/02 00:25:06;;;;;;;2.65;1.30;;;12.10;70.30;;;;;;5048031;28;20025;-74
2023/01/02 00:27:32;;;;;;;1.60;1.05;;;12.20;71.10;;;;;;5048406;28;20028;-73
2023/01/02 00:29:58;;;;;;;5.80;1.40;;;;;;;;;;5048091;28;20497;-73
2023/01/02 00:32:24;;;;;;;5.05;1.45;;;;;;;;;;5048443;28;20033;-73
2023/01/02 00:34:49;;;;;;;5.43;2.25;;;12.20;86.40;;;;;;5047951;28;20052;-73
2023/01/02 00:37:15;;;;;;;3.30;1.17;;;12.10;79.60;;;;;;5048359;28;20017;-73
2023/01/02 00:39:41;;;;;;;5.90;1.33;;;;;;;;;;5048014;28;20071;-73
2023/01/02 00:42:07;;;;;;;5.13;1.63;;;;;;;;;;5047883;28;20395;-73
2023/01/02 00:44:33;;;;;;;13.65;1.85;;;;;;;;;;5047459;28;20036;-73
2023/01/02 00:46:59;;;;;;;5.38;1.63;;;;;;;;;;5047999;28;20025;-74
2023/01/02 00:49:24;;;;;;;4.10;1.23;;;;;;;;;;5046538;28;20048;-73
2023/01/02 00:51:51;;;;;;;1.55;1.10;;;;;;;;;;5048042;28;20124;-73
2023/01/02 00:54:16;;;;;;;2.25;1.30;;;;;;;;;;5047507;28;20562;-73
2023/01/02 00:56:42;;;;;;;2.13;1.15;;;;;;;;;;5048072;28;20025;-73
2023/01/02 00:59:08;;;;;;;11.43;1.50;;;;;;;;;;5047695;28;20445;-73
2023/01/02 01:01:35;;;;;;;6.78;1.30;;;;;;;;;;5047553;28;20029;-73
2023/01/02 01:04:01;;;;;;;9.27;0.90;;;;;;;;;;5045558;28;20037;-73
2023/01/02 01:06:27;;;;;;;4.25;1.23;;;;;;;;;;5047687;28;20021;-73
2023/01/02 01:08:53;;;;;;;5.50;1.27;;;;;;;;;;5047500;28;20025;-73
2023/01/02 01:11:18;;;;;;;5.70;2.20;;;11.70;76.20;;;;;;5047925;28;20120;-73
2023/01/02 01:13:44;;;;;;;2.13;1.15;;;11.70;70.20;;;;;;5046596;28;20532;-73
2023/01/02 01:16:13;;;;;;;5.82;1.20;;;11.50;78.50;;;;;;5047833;28;20033;-74
2023/01/02 01:18:39;;;;;;;4.28;1.52;;;;;;;;;;5047380;28;20025;-73
2023/01/02 01:21:19;;;;;;;6.03;1.42;;;11.60;70.70;;;;;;5037002;28;20021;-73
2023/01/02 01:23:52;;;;;;;1.30;1.15;;;11.80;70.30;;;;;;5047012;28;20044;-73
2023/01/02 01:26:19;;;;;;;1.23;1.13;;;11.70;70.30;;;;;;5047276;28;20491;-74
2023/01/02 01:28:45;;;;;;;1.85;1.10;;;11.50;81.20;;;;;;5047585;28;20112;-73
2023/01/02 01:31:12;;;;;;;7.45;1.75;;;11.70;80.50;;;;;;5046939;28;20725;-73
2023/01/02 01:33:40;;;;;;;3.97;1.67;;;11.60;71.10;;;;;;5047317;28;20025;-73
2023/01/02 01:36:12;;;;;;;6.03;3.17;;;11.50;71.20;;;;;;5033254;28;20037;-73
2023/01/02 01:38:38;;;;;;;5.00;1.60;;;11.50;71.50;;;;;;5047254;28;20044;-73
2023/01/02 01:41:04;;;;;;;6.63;1.90;;;11.50;71.60;;;;;;5046845;28;20100;-73
2023/01/02 01:43:45;;;;;;;2.88;1.38;;;12.00;72.70;;;;;;5046383;28;20118;-73
2023/01/02 01:46:39;;;;;;;5.43;1.08;;;11.40;71.80;;;;;;5047076;28;20026;-73
2023/01/02 01:49:13;;;;;;;4.45;1.42;;;11.50;77.00;;;;;;5046909;28;20036;-73
2023/01/02 01:52:05;;;;;;;1.38;0.98;;;11.40;72.20;;;;;;5046929;28;20444;-73
2023/01/02 01:54:47;;;;;;;7.38;1.60;;;11.50;84.80;;;;;;5037006;28;20101;-73
2023/01/02 01:57:20;;;;;;;4.88;1.17;;;11.40;82.40;;;;;;5046926;28;20437;-73
2023/01/02 01:59:46;;;;;;;2.35;1.33;;;;;;;;;;5046935;28;20063;-74
2023/01/02 02:02:13;;;;;;;4.95;1.42;;;;;;;;;;5046496;28;20052;-73
2023/01/02 02:04:41;;;;;;;5.38;1.45;;;11.50;72.80;;;;;;5046604;28;20108;-73
2023/01/02 02:07:07;;;;;;;2.10;1.48;;;;;;;;;;5046200;28;20040;-73
2023/01/02 02:09:48;;;;;;;1.65;1.20;;;11.20;73.10;;;;;;5046927;28;20025;-73
2023/01/02 02:12:16;;;;;;;6.60;1.83;;;;;;;;;;5046538;28;20025;-73
2023/01/02 02:14:41;;;;;;;;;;;11.30;73.60;;;;;;5046048;28;20033;-73
2023/01/02 02:17:07;;;;;;;3.25;2.15;;;;;;;;;;5046545;28;19909;-73
2023/01/02 02:20:11;;;;;;;1.67;1.05;;;11.10;74.40;;;;;;5044969;28;20033;-73
2023/01/02 02:22:39;;;;;;;3.00;1.00;;;10.90;80.70;;;;;;5046483;28;20683;-73
2023/01/02 02:25:29;;;;;;;2.22;1.30;;;11.10;75.20;;;;;;5046184;28;20135;-73
2023/01/02 02:28:06;;;;;;;3.60;1.52;;;11.00;90.10;;;;;;5046499;28;20025;-73
2023/01/02 02:30:42;;;;;;;7.20;1.70;;;11.10;84.60;;;;;;5046482;28;20033;-73
2023/01/02 02:33:16;;;;;;;1.33;1.13;;;11.10;90.60;;;;;;5046632;28;20075;-73
2023/01/02 02:36:21;;;;;;;2.08;1.30;;;10.90;76.30;;;;;;5046909;28;20398;-73
2023/01/02 02:38:53;;;;;;;3.72;1.58;;;10.50;75.10;;;;;;5036897;28;20017;-73
2023/01/02 02:41:31;;;;;;;3.22;2.17;;;11.20;77.50;;;;;;5046323;28;20036;-73
2023/01/02 02:44:39;;;;;;;2.75;1.73;;;11.30;74.90;;;;;;5046145;28;20107;-73
2023/01/02 02:47:27;;;;;;;12.40;2.15;;;11.30;74.70;;;;;;4996327;28;20615;-73
2023/01/02 02:49:58;;;;;;;4.20;1.80;;;11.30;74.50;;;;;;5003284;28;20041;-73
2023/01/02 02:52:43;;;;;;;3.90;2.03;;;11.30;90.00;;;;;;4987720;28;20176;-73
2023/01/02 02:55:15;;;;;;;10.80;1.73;;;11.40;74.40;;;;;;5004166;28;20022;-73
2023/01/02 02:57:43;;;;;;;7.78;1.58;;;11.50;74.80;;;;;;5003853;28;20156;-73
2023/01/02 03:00:11;;;;;;;;;;;11.50;75.20;;;;;;5004562;28;20026;-73
2023/01/02 03:02:37;;;;;;;4.80;1.48;;;;;;;;;;5001932;28;20001;-73
2023/01/02 03:05:06;;;;;;;5.47;1.73;;;12.20;84.00;;;;;;4998141;28;20046;-73
2023/01/02 03:07:40;;;;;;;6.43;1.17;;;11.70;73.50;;;;;;5003509;28;20041;-73
2023/01/02 03:10:39;;;;;;;6.43;1.70;;;12.20;74.80;;;;;;5003794;28;20669;-73
2023/01/02 03:13:29;;;;;;;11.40;1.42;;;12.20;74.70;;;;;;4991680;28;20026;-73
2023/01/02 03:15:55;;;;;;;4.10;1.10;;;;;;;;;;4999461;28;20093;-73
2023/01/02 03:18:21;;;;;;;7.40;1.40;;;;;;;;;;4994706;28;20061;-73
2023/01/02 03:20:58;;;;;;;4.18;1.42;;;12.40;74.00;;;;;;5003931;28;20061;-73
2023/01/02 03:23:27;;;;;;;4.63;3.53;;;12.50;77.10;;;;;;5032086;28;20418;-73
2023/01/02 03:25:55;;;;;;;2.75;1.40;;;12.40;73.80;;;;;;5047296;28;20051;-73
2023/01/02 03:28:25;;;;;;;3.15;1.20;;;13.10;74.50;;;;;;5049518;28;20061;-73
2023/01/02 03:30:55;;;;;;;3.20;1.45;;;12.50;88.40;;;;;;5049795;28;20036;-74
2023/01/02 03:33:26;;;;;;;9.38;1.23;;;10.50;71.70;;;;;;5049756;28;20056;-73
2023/01/02 03:36:22;;;;;;;4.50;1.35;;;12.20;73.70;;;;;;5049775;28;20468;-73
2023/01/02 03:38:57;;;;;;;2.60;1.45;;;12.60;72.30;;;;;;5037799;28;20128;-73
2023/01/02 03:41:27;;;;;;;6.85;1.58;;;12.70;72.00;;;;;;5048040;28;20037;-73
2023/01/02 03:43:55;;;;;;;2.58;2.28;;;12.60;71.40;;;;;;5048859;28;20049;-73
2023/01/02 03:46:56;;;;;;;10.73;2.25;;;12.70;70.90;;;;;;5047806;28;20053;-74
2023/01/02 03:49:30;;;;;;;4.47;1.67;;;12.50;71.90;;;;;;5048954;28;20714;-73
2023/01/02 03:51:57;;;;;;;4.03;1.42;;;;;;;;;;5049469;28;20029;-73
2023/01/02 03:54:23;;;;;;;3.47;1.48;;;;;;;;;;5049168;28;20450;-73
2023/01/02 03:57:11;;;;;;;5.43;1.45;;;12.70;69.90;;;;;;5047800;28;20470;-73
2023/01/02 03:59:52;;;;;;;8.27;1.27;;;12.90;75.80;;;;;;5049492;28;20096;-73
2023/01/02 04:02:35;;;;;;;4.55;1.33;;;12.70;69.30;;;;;;5048776;28;20086;-73
2023/01/02 04:05:24;;;;;;;3.75;1.25;;;12.80;69.10;;;;;;5047810;28;20021;-73
2023/01/02 04:08:07;;;;;;;11.95;2.85;;;12.60;68.90;;;;;;5037499;28;20067;-73
2023/01/02 04:10:36;;;;;;;7.13;2.05;;;12.80;68.60;;;;;;5048678;28;20041;-73
2023/01/02 04:13:10;;;;;;;5.00;0.77;;;13.00;69.50;;;;;;5049143;28;20025;-73
2023/01/02 04:15:39;;;;;;;2.17;1.10;;;12.70;68.90;;;;;;5048660;28;20052;-73
2023/01/02 04:18:10;;;;;;;11.48;2.00;;;12.80;68.70;;;;;;5048408;28;20063;-73
2023/01/02 04:20:42;;;;;;;7.43;1.17;;;12.70;68.70;;;;;;5048330;28;20364;-73
2023/01/02 04:23:15;;;;;;;5.53;1.42;;;12.70;68.60;;;;;;5048611;28;20033;-73
2023/01/02 04:25:48;;;;;;;9.18;1.42;;;13.10;69.80;;;;;;5035648;28;20608;-73
2023/01/02 04:28:25;;;;;;;4.38;1.23;;;12.70;68.90;;;;;;5047739;28;20082;-73
2023/01/02 04:31:19;;;;;;;4.90;1.30;;;12.70;79.60;;;;;;5048169;28;20535;-73
2023/01/02 04:33:52;;;;;;;2.33;0.90;;;12.50;80.30;;;;;;5048540;28;20029;-73
2023/01/02 04:36:18;;;;;;;1.52;1.02;;;;;;;;;;5048067;28;20060;-73
2023/01/02 04:38:44;;;;;;;7.63;2.50;;;12.50;69.30;;;;;;5047549;28;20017;-73
2023/01/02 04:41:13;;;;;;;3.97;2.30;;;12.60;69.50;;;;;;5048000;28;20036;-73
2023/01/02 04:43:39;;;;;;;3.80;1.15;;;12.40;86.80;;;;;;5047593;28;20048;-73
2023/01/02 04:46:05;;;;;;;2.45;1.15;;;12.30;79.50;;;;;;5047921;28;20472;-73
2023/01/02 04:48:31;;;;;;;9.77;1.80;;;;;;;;;;5047945;28;20075;-73
2023/01/02 04:50:57;;;;;;;2.50;1.55;;;;;;;;;;5047180;28;20033;-73
2023/01/02 04:53:23;;;;;;;3.28;2.10;;;;;;;;;;5048240;28;20033;-73
2023/01/02 04:55:57;;;;;;;1.45;1.33;;;12.60;70.80;;;;;;5047885;28;20514;-74
2023/01/02 04:58:23;;;;;;;1.52;1.10;;;;;;;;;;5048469;28;20041;-73
2023/01/02 05:00:49;;;;;;;4.85;1.45;;;;;;;;;;5047687;28;20032;-73
2023/01/02 05:03:15;;;;;;;4.07;1.25;;;;;;;;;;5047948;28;20097;-73
2023/01/02 05:05:41;;;;;;;4.03;1.90;;;;;;;;;;5047486;28;20017;-73
2023/01/02 05:08:07;;;;;;;2.20;2.00;;;;;;;;;;5048059;28;20029;-73
2023/01/02 05:10:33;;;;;;;4.72;1.55;;;;;;;;;;5047769;28;20028;-73
2023/01/02 05:12:59;;;;;;;4.43;1.50;;;;;;;;;;5047346;28;20198;-73
2023/01/02 05:15:25;;;;;;;3.90;1.83;;;;;;;;;;5046828;28;20025;-73
2023/01/02 05:17:50;;;;;;;4.80;1.65;;;12.50;79.40;;;;;;5047532;28;20048;-73
2023/01/02 05:20:16;;;;;;;10.45;1.58;;;;;;;;;;5047281;28;20063;-73
2023/01/02 05:25:30;;;;;;;5.03;1.50;;;12.50;70.80;;;;;;5047980;28;20036;-73
2023/01/02 05:27:56;;;;;;;4.30;1.55;;;;;;;;;;5046192;28;20036;-73
2023/01/02 05:30:23;;;;;;;1.75;1.30;;;;;;;;;;5046969;28;20103;-73
2023/01/02 05:32:49;;;;;;;5.07;1.95;;;;;;;;;;5047530;28;20028;-73
2023/01/02 05:35:15;;;;;;;6.75;2.20;;;12.70;74.60;;;;;;5045634;28;20025;-73
2023/01/02 05:37:41;;;;;;;7.32;1.60;;;;;;;;;;5041036;28;20036;-73
2023/01/02 05:40:07;;;;;;;7.15;2.50;;;12.50;71.00;;;;;;5046502;28;20087;-73
2023/01/02 05:42:33;;;;;;;7.65;1.65;;;;;;;;;;5047068;28;20118;-73
2023/01/02 05:44:59;;;;;;;4.50;1.98;;;12.30;88.20;;;;;;5046198;28;20466;-73
2023/01/02 05:47:25;;;;;;;3.22;1.02;;;;;;;;;;5047170;28;20043;-73
2023/01/02 05:49:51;;;;;;;6.63;1.65;;;;;;;;;;5046715;28;20483;-73
2023/01/02 05:52:17;;;;;;;18.48;3.08;;;;;;;;;;5047004;28;20048;-73
2023/01/02 05:54:43;;;;;;;10.13;1.77;;;;;;;;;;5046854;28;20118;-73
2023/01/02 05:57:09;;;;;;;3.70;2.35;;;;;;;;;;5046806;28;20025;-73
2023/01/02 05:59:35;;;;;;;6.60;2.70;;;;;;;;;;5046212;28;20541;-73
2023/01/02 06:02:01;;;;;;;9.70;1.80;;;;;;;;;;5046881;28;20048;-73
2023/01/02 06:04:27;;;;;;;5.40;1.35;;;;;;;;;;5046372;28;20079;-73
2023/01/02 06:06:53;;;;;;;9.05;1.88;;;;;;;;;;5047048;28;20063;-73
2023/01/02 06:09:19;;;;;;;8.13;2.35;;;;;;;;;;5046335;28;20437;-73
2023/01/02 06:11:45;;;;;;;5.00;1.85;;;;;;;;;;5046477;28;20048;-73
2023/01/02 06:14:10;;;;;;;3.72;1.40;;;12.80;89.60;;;;;;5045911;28;20654;-74
2023/01/02 06:16:37;;;;;;;2.95;1.80;;;12.50;72.10;;;;;;5047099;28;20036;-74
2023/01/02 06:19:04;;;;;;;6.90;1.77;;;12.30;72.60;;;;;;5046465;28;20025;-73
2023/01/02 06:21:30;;;;;;;2.45;1.50;;;;;;;;;;5046875;28;20078;-73
2023/01/02 06:23:57;;;;;;;7.10;2.95;;;12.30;76.00;;;;;;5061612;28;20035;-73
2023/01/02 06:26:24;;;;;;;5.78;1.95;;;12.40;72.90;;;;;;5046674;28;20025;-73
2023/01/02 06:28:52;;;;;;;12.48;3.13;;;12.40;73.10;;;;;;5046053;28;20056;-73
2023/01/02 06:31:19;;;;;;;5.47;1.65;;;12.40;73.30;;;;;;5046177;28;20032;-73
2023/01/02 06:33:45;;;;;;;2.05;1.52;;;12.40;73.80;;;;;;5045912;28;20517;-73
2023/01/02 06:36:16;;;;;;;7.15;1.40;;;12.40;74.00;;;;;;5045023;28;20037;-73
2023/01/02 06:38:44;;;;;;;8.05;1.75;;;12.40;74.10;;;;;;5046617;28;20013;-74
2023/01/02 06:41:10;;;;;;;3.95;1.70;;;;;;;;;;5046071;28;20082;-73
2023/01/02 06:43:41;;;;;;;2.85;1.50;;;12.20;90.60;;;;;;5045581;28;20045;-73
2023/01/02 06:46:07;;;;;;;3.65;1.60;;;;;;;;;;5046192;28;20056;-73
2023/01/02 06:48:33;;;;;;;1.17;1.08;;;12.30;74.00;;;;;;5046438;28;20024;-73
2023/01/02 06:51:01;;;;;;;2.25;1.60;;;12.50;83.20;;;;;;5044802;28;20512;-73
2023/01/02 06:53:27;;;;;;;2.45;1.63;;;12.30;83.80;;;;;;5039830;28;20091;-73
2023/01/02 06:55:56;;;;;;;3.38;1.80;;;12.40;73.70;;;;;;5044715;28;20106;-73
2023/01/02 06:58:23;;;;;;;5.82;1.75;;;12.40;73.70;;;;;;5044832;28;20490;-73
2023/01/02 07:00:49;;;;;;;2.80;1.23;;;;;;;;;;5046115;28;20025;-73
2023/01/02 07:03:15;;;;;;;3.13;1.10;;;12.30;73.40;;;;;;5048417;28;20041;-74
2023/01/02 07:05:42;;;;;;;7.05;2.28;;;12.40;85.30;;;;;;5045141;28;20111;-74
2023/01/02 07:08:08;;;;;;;9.35;2.05;;;;;;;;;;5034495;28;20022;-75
2023/01/02 07:10:34;;;;;;;9.77;2.03;;;;;;;;;;5045332;28;20027;-74
2023/01/02 07:13:00;;;;;;;3.88;2.15;;;;;;;;;;5048508;28;20448;-75
2023/01/02 07:15:26;;;;;;;10.05;1.98;;;;;;;;;;5040346;28;20044;-74
2023/01/02 07:17:52;;;;;;;8.80;2.08;;;;;;;;;;5048791;28;20032;-75
2023/01/02 07:20:18;;;;;;;10.13;1.88;;;;;;;;;;5048626;28;20032;-79
2023/01/02 07:22:51;;;;;;;2.97;1.55;;;12.40;72.80;;;;;;5048106;28;20033;-74
2023/01/02 07:25:17;;;;;;;10.13;2.10;;;12.20;73.10;;;;;;5045391;28;20031;-76
2023/01/02 07:27:43;;;;;;;7.55;1.60;;;;;;;;;;5048842;28;20112;-76
2023/01/02 07:30:09;;;;;;;10.95;2.30;;;;;;;;;;5048551;28;20096;-74
2023/01/02 07:32:35;;;;;;;2.10;1.27;;;12.10;75.70;;;;;;5047886;28;20037;-77
2023/01/02 07:35:01;;;;;;;3.75;2.33;;;;;;;;;;5048088;28;20040;-75
2023/01/02 07:37:27;;;;;;;4.03;1.50;;;;;;;;;;5048319;28;20112;-77
2023/01/02 07:39:53;;;;;;;4.88;2.05;;;;;;;;;;5048464;28;20104;-77
2023/01/02 07:42:19;;;;;;;13.23;1.40;;;;;;;;;;5048323;28;20031;-76
2023/01/02 07:44:45;;;;;;;3.28;1.83;;;12.60;90.30;;;;;;5047807;28;20036;-75
2023/01/02 07:47:10;;;;;;;6.13;3.85;;;12.30;85.20;;;;;;5039648;28;20019;-76
2023/01/02 07:49:36;;;;;;;5.32;2.35;;;;;;;;;;5045538;28;20071;-77
2023/01/02 07:52:02;;;;;;;6.28;1.33;;;12.40;77.80;;;;;;5047418;28;20021;-75
2023/01/02 07:54:28;;;;;;;10.25;2.03;;;;;;;;;;5047767;28;20024;-74
2023/01/02 07:56:54;;;;;;;7.22;1.77;;;;;;;;;;5047799;28;20120;-76
2023/01/02 07:59:20;;;;;;;7.43;1.98;;;;;;;;;;5047996;28;20009;-74
2023/01/02 08:01:46;;;;;;;5.35;1.85;;;;;;;;;;5046625;28;20583;-75
2023/01/02 08:04:12;;;;;;;4.57;1.23;;;12.50;79.70;;;;;;5048457;28;20116;-75
2023/01/02 08:06:40;;;;;;;7.45;2.20;;;12.70;73.20;;;;;;5048191;28;20653;-75
2023/01/02 08:09:06;;;;;;;6.28;1.63;;;12.70;73.20;;;;;;5048056;28;20033;-74
2023/01/02 08:11:32;;;;;;;3.88;2.67;;;;;;;;;;5047535;28;20052;-74
2023/01/02 08:13:58;;;;;;;3.20;1.52;;;;;;;;;;5046479;28;20013;-75
2023/01/02 08:16:24;;;;;;;4.32;2.20;;;12.90;73.00;;;;;;5048169;28;20502;-75
2023/01/02 08:18:54;;;;;;;11.50;2.33;;;12.90;79.20;;;;;;5047854;28;20110;-75
2023/01/02 08:21:21;;;;;;;9.65;2.30;;;13.10;90.00;;;;;;5047657;28;20029;-75
2023/01/02 08:23:47;;;;;;;6.38;1.92;;;;;;;;;;5047725;28;20037;-75
2023/01/02 08:26:13;;;;;;;8.15;2.17;;;;;;;;;;5047995;28;20039;-75
2023/01/02 08:28:40;;;;;;;4.00;2.55;;;13.10;72.60;;;;;;5042621;28;20602;-75
2023/01/02 08:31:09;;;;;;;4.68;1.58;;;13.20;72.70;;;;;;5038353;28;20031;-78
2023/01/02 08:33:34;;;;;;;19.48;2.65;;;;;;;;;;5044157;28;20043;-79
2023/01/02 08:36:01;;;;;;;2.78;1.67;;;;;;;;;;5039401;28;20025;-75
2023/01/02 08:38:26;;;;;;;6.72;2.72;;;13.20;76.10;;;;;;5040905;28;20087;-74
2023/01/02 08:40:52;;;;;;;2.03;1.70;;;;;;;;;;5044240;28;20498;-73
2023/01/02 08:43:18;;;;;;;2.47;1.83;;;;;;;;;;5043536;28;20057;-75
2023/01/02 08:45:44;;;;;;;4.13;1.65;;;;;;;;;;5041874;28;20025;-72
2023/01/02 08:48:10;;;;;;;4.72;1.88;;;;;;;;;;5042448;28;20765;-76
2023/01/02 08:50:36;;;;;;;2.38;2.17;;;;;;;;;;5036390;28;20055;-79
2023/01/02 08:53:02;;;;;;;3.90;2.42;;;;;;;;;;5043971;28;20502;-76
2023/01/02 08:55:28;;;;;;;4.13;1.80;;;;;;;;;;5043037;28;20040;-83
2023/01/02 08:57:54;;;;;;;4.10;1.48;;;;;;;;;;5040806;28;20060;-74
2023/01/02 09:00:20;;;;;;;9.93;1.77;;;;;;;;;;5039301;28;20224;-78
2023/01/02 09:02:46;;;;;;;1.80;1.25;;;;;;;;;;5044630;28;20325;-79
2023/01/02 09:05:12;;;;;;;6.55;2.33;;;;;;;;;;5044055;28;20909;-78
2023/01/02 09:07:38;;;;;;;6.97;2.15;;;;;;;;;;5044305;28;20025;-78
2023/01/02 09:10:04;;;;;;;3.88;1.65;;;13.60;75.20;;;;;;5038843;28;20102;-79
2023/01/02 09:12:30;;;;;;;5.25;1.75;;;;;;;;;;5042719;28;20040;-74
2023/01/02 09:14:56;;;;;;;2.78;1.52;;;14.00;87.90;;;;;;5043742;28;20123;-74
2023/01/02 09:17:22;;;;;;;3.00;1.80;;;;;;;;;;5045196;28;20589;-74
2023/01/02 09:19:48;;;;;;;10.85;2.55;;;;;;;;;;5038343;28;20036;-74
2023/01/02 09:22:14;;;;;;;13.27;2.15;;;;;;;;;;5040942;28;20036;-74
2023/01/02 09:24:40;;;;;;;4.45;1.83;;;13.80;71.70;;;;;;5043917;28;20029;-74
2023/01/02 09:27:06;;;;;;;4.15;2.67;;;;;;;;;;5044551;28;20032;-74
2023/01/02 09:29:32;;;;;;;2.08;1.40;;;;;;;;;;5038205;28;20036;-74
2023/01/02 09:31:59;;;;;;;5.95;2.60;;;13.90;71.30;;;;;;5043182;28;20037;-74
2023/01/02 09:34:25;;;;;;;7.73;1.87;;;;;;;;;;5043026;28;20037;-74
2023/01/02 09:36:51;;;;;;;4.57;1.67;;;;;;;;;;5041233;28;20614;-74
2023/01/02 09:39:17;;;;;;;6.65;1.60;;;;;;;;;;5036557;28;20021;-74
2023/01/02 09:41:52;;;;;;;3.25;1.75;;;13.80;71.90;;;;;;5039340;28;20052;-74
2023/01/02 09:44:18;;;;;;;3.97;1.63;;;;;;;;;;5035622;28;20076;-74
2023/01/02 09:46:44;;;;;;;3.55;1.80;;;;;;;;;;5039705;28;20437;-74
2023/01/02 09:49:23;;;;;;;8.25;2.88;;;13.90;72.40;;;;;;5036979;28;20032;-76
2023/01/02 09:51:49;;;;;;;6.50;1.92;;;;;;;;;;5034859;28;20026;-74
2023/01/02 09:54:28;;;;;;;8.45;3.50;;;13.80;72.90;;;;;;5040422;28;20181;-76
2023/01/02 09:57:15;;;;;;;7.95;1.52;;;13.80;73.00;;;;;;5039263;28;20032;-74
2023/01/02 09:59:49;;;;;;;6.07;2.20;;;13.80;72.90;;;;;;4977307;28;20042;-75
2023/01/02 10:02:28;;;;;;;8.27;2.58;;;14.10;82.30;;;;;;4999543;28;20904;-76
2023/01/02 10:05:27;;;;;;;5.50;1.20;;;14.00;72.30;;;;;;4995208;28;20045;-73
2023/01/02 10:07:56;;;;;;;4.60;2.58;;;14.10;74.30;;;;;;4998294;28;20064;-74
2023/01/02 10:10:25;;;;;;;5.55;1.90;;;14.10;72.30;;;;;;4994117;28;20080;-74
2023/01/02 10:12:51;;;;;;;3.75;1.42;;;;;;;;;;4997958;28;20061;-76
2023/01/02 10:15:26;;;;;;;3.63;2.85;;;14.50;72.20;;;;;;5000375;28;20033;-80
2023/01/02 10:17:56;;;;;;;2.63;1.40;;;14.30;71.60;;;;;;4999421;28;20101;-78
2023/01/02 10:20:28;;;;;;;6.53;1.33;;;14.30;71.70;;;;;;4992378;28;20092;-76
2023/01/02 10:23:01;;;;;;;4.72;2.15;;;14.20;77.00;;;;;;4998055;28;20519;-75
2023/01/02 10:25:38;;;;;;;2.78;2.03;;;14.20;71.90;;;;;;5001595;28;20739;-75
2023/01/02 10:28:12;;;;;;;6.00;1.90;;;14.30;80.60;;;;;;4991750;28;20105;-75
2023/01/02 10:30:45;;;;;;;6.18;2.45;;;14.20;72.10;;;;;;4994766;28;20482;-74
2023/01/02 10:33:32;;;;;;;6.65;2.20;;;14.20;72.30;;;;;;4998863;28;20036;-75
2023/01/02 10:36:00;;;;;;;6.05;2.35;;;14.10;72.30;;;;;;5007663;28;20045;-77
2023/01/02 10:38:37;;;;;;;4.65;2.50;;;14.10;72.80;;;;;;5046169;28;20032;-77
2023/01/02 10:41:03;;;;;;;2.83;2.22;;;14.10;79.60;;;;;;5045160;28;20116;-76
2023/01/02 10:43:33;;;;;;;7.13;1.90;;;;;;;;;;5046795;28;20048;-74
2023/01/02 10:46:01;;;;;;;3.75;1.27;;;14.30;71.90;;;;;;5047485;28;20041;-75
2023/01/02 10:48:32;;;;;;;2.15;1.27;;;14.30;72.10;;;;;;5043930;28;20125;-75
2023/01/02 10:51:04;;;;;;;4.00;1.35;;;14.30;71.80;;;;;;5045070;28;20596;-74
2023/01/02 10:53:32;;;;;;;4.55;1.95;;;14.40;72.00;;;;;;5046779;28;20469;-74
2023/01/02 10:56:03;;;;;;;2.83;1.27;;;14.40;71.70;;;;;;5044278;28;20047;-74
2023/01/02 10:58:32;;;;;;;5.25;2.35;;;14.30;77.90;;;;;;5044998;28;20040;-74
2023/01/02 11:01:17;;;;;;;2.30;1.63;;;14.50;71.20;;;;;;5041027;28;20030;-75
2023/01/02 11:03:44;;;;;;;5.43;2.53;;;14.60;74.20;;;;;;5044517;28;20036;-75
2023/01/02 11:06:20;;;;;;;7.13;1.33;;;14.60;70.90;;;;;;5046696;28;20108;-75
2023/01/02 11:08:58;;;;;;;2.20;1.40;;;14.70;71.00;;;;;;5040569;28;20025;-75
2023/01/02 11:11:25;;;;;;;3.22;1.48;;;14.70;70.90;;;;;;5043378;28;20060;-75
2023/01/02 11:13:54;;;;;;;1.92;1.55;;;;;;;;;;5043688;28;20029;-75
2023/01/02 11:16:22;;;;;;;2.92;1.30;;;14.80;70.90;;;;;;5046045;28;20078;-75
2023/01/02 11:18:53;;;;;;;4.28;1.88;;;14.70;70.70;;;;;;5040234;28;20065;-75
2023/01/02 11:21:32;;;;;;;2.10;1.90;;;14.80;87.30;;;;;;5044335;28;20119;-75
2023/01/02 11:24:03;;;;;;;1.55;1.20;;;14.60;71.00;;;;;;5041262;28;20679;-75
2023/01/02 11:26:31;;;;;;;2.30;1.27;;;14.50;71.20;;;;;;5043741;28;20025;-75
2023/01/02 11:29:19;;;;;;;3.20;1.92;;;14.60;78.90;;;;;;5037876;28;20383;-75
2023/01/02 11:31:50;;;;;;;3.58;1.88;;;14.50;71.40;;;;;;5043893;28;20029;-75
2023/01/02 11:34:22;;;;;;;2.72;1.85;;;14.70;71.20;;;;;;5044053;28;20453;-75
2023/01/02 11:37:11;;;;;;;8.70;1.50;;;14.80;70.80;;;;;;5042978;28;20090;-75
2023/01/02 11:39:38;;;;;;;2.35;1.23;;;14.90;70.60;;;;;;5031438;28;20033;-75
2023/01/02 11:45:14;;;;;;;2.05;1.45;;;15.40;71.20;;;;;;5043311;28;20044;-75
2023/01/02 11:47:56;;;;;;;2.33;0.85;;;14.80;70.60;;;;;;5041328;28;20033;-74
2023/01/02 11:50:24;;;;;;;2.95;1.05;;;14.80;70.90;;;;;;5039629;28;20031;-75
2023/01/02 11:52:53;;;;;;;2.05;1.20;;;14.80;70.80;;;;;;5043002;28;20446;-75
2023/01/02 11:55:25;;;;;;;2.53;1.40;;;14.90;70.70;;;;;;5045531;28;20059;-75
2023/01/02 11:58:15;;;;;;;2.17;1.50;;;14.90;70.50;;;;;;5043884;28;20025;-75
2023/01/02 12:00:43;;;;;;;5.35;1.15;;;15.00;80.20;;;;;;5040459;28;21443;-75
2023/01/02 12:03:22;;;;;;;6.35;1.60;;;15.00;82.30;;;;;;5036598;28;20040;-75
2023/01/02 12:06:00;;;;;;;8.85;1.15;;;14.70;70.90;;;;;;5045606;28;20551;-75
2023/01/02 12:09:03;;;;;;;6.57;2.70;;;14.60;71.40;;;;;;5040981;28;20108;-75
2023/01/02 12:11:44;;;;;;;5.45;1.50;;;14.50;71.70;;;;;;5035264;28;20049;-74
2023/01/02 12:14:15;;;;;;;2.67;1.00;;;14.40;72.90;;;;;;5044522;28;20048;-74
2023/01/02 12:17:28;;;;;;;1.85;1.13;;;14.40;73.00;;;;;;5044983;28;20023;-74
2023/01/02 12:20:24;;;;;;;4.90;1.42;;;14.30;73.20;;;;;;4973827;28;20026;-74
2023/01/02 12:23:24;;;;;;;7.70;1.23;;;14.20;77.20;;;;;;4984143;28;20258;-74
2023/01/02 12:26:18;;;;;;;3.35;1.50;;;14.30;73.60;;;;;;4979044;28;20515;-74
2023/01/02 12:28:44;;;;;;;2.45;1.85;;;;;;;;;;4979689;28;20042;-74
2023/01/02 12:31:25;;;;;;;6.00;1.45;;;14.40;73.70;;;;;;4965874;28;20037;-74
2023/01/02 12:34:28;;;;;;;2.58;1.30;;;14.40;73.40;;;;;;4977946;28;20046;-74
2023/01/02 12:37:30;;;;;;;4.40;1.90;;;14.50;73.20;;;;;;4983587;28;20023;-74
2023/01/02 12:40:10;;;;;;;3.50;1.17;;;14.40;73.70;;;;;;4971594;28;20519;-74
2023/01/02 12:43:06;;;;;;;6.70;1.67;;;14.50;77.20;;;;;;4980532;28;20050;-74
2023/01/02 12:45:40;;;;;;;2.83;1.38;;;14.60;72.70;;;;;;4976655;28;20637;-74
2023/01/02 12:48:09;;;;;;;1.25;1.05;;;;;;;;;;4982009;28;20084;-77
2023/01/02 12:50:53;;;;;;;4.90;1.20;;;;;;;;;;4975995;28;20034;-77
2023/01/02 12:53:19;;;;;;;5.03;1.27;;;;;;;;;;5000905;28;20068;-74
2023/01/02 12:56:01;;;;;;;1.67;1.42;;;14.50;73.90;;;;;;5044415;28;20057;-71
2023/01/02 12:58:40;;;;;;;4.25;1.20;;;14.40;73.80;;;;;;5040858;28;20085;-82
2023/01/02 13:01:17;;;;;;;2.53;1.00;;;;;;;;;;5041939;28;20020;-76
2023/01/02 13:03:55;;;;;;;6.43;2.15;;;14.40;74.20;;;;;;5043478;28;20047;-75
2023/01/02 13:06:45;;;;;;;6.13;1.23;;;14.50;77.80;;;;;;5045586;28;20025;-75
2023/01/02 13:09:31;;;;;;;1.75;1.23;;;15.00;74.80;;;;;;5036907;28;20104;-73
2023/01/02 13:11:57;;;;;;;5.10;1.50;;;14.30;90.60;;;;;;5036864;28;20025;-73
2023/01/02 13:14:29;;;;;;;3.85;1.40;;;14.90;77.60;;;;;;5038152;28;20025;-73
2023/01/02 13:17:19;;;;;;;6.25;1.20;;;14.40;74.80;;;;;;5041639;28;20510;-74
2023/01/02 13:19:56;;;;;;;1.75;1.20;;;14.40;75.10;;;;;;5038676;28;20056;-74
2023/01/02 13:22:31;;;;;;;3.53;1.40;;;14.50;74.50;;;;;;5043985;28;20074;-74
2023/01/02 13:24:57;;;;;;;3.78;1.58;;;;;;;;;;5042422;28;20044;-74
2023/01/02 13:27:24;;;;;;;4.78;2.35;;;14.60;74.30;;;;;;5041935;28;20037;-74
2023/01/02 13:29:50;;;;;;;5.78;1.92;;;;;;;;;;5039030;28;20028;-74
2023/01/02 13:32:26;;;;;;;8.27;1.98;;;14.70;74.30;;;;;;5036667;28;20388;-74
2023/01/02 13:34:54;;;;;;;4.45;1.63;;;14.70;74.60;;;;;;5044472;28;20033;-74
2023/01/02 13:37:21;;;;;;;;;;;14.80;74.30;;;;;;5045707;28;20100;-74
2023/01/02 13:39:51;;;;;;;1.98;1.02;;;14.90;73.80;;;;;;5040476;28;19913;-74
2023/01/02 13:45:36;;;;;;;2.22;1.20;;;15.10;82.10;;;;;;5040618;28;20234;-74
2023/01/02 13:48:04;;;;;;;5.55;1.45;;;14.80;73.70;;;;;;5044943;28;20028;-74
2023/01/02 13:50:37;;;;;;;3.33;1.13;;;15.30;78.20;;;;;;5039930;28;20052;-74
2023/01/02 13:53:08;;;;;;;2.00;1.80;;;14.90;84.70;;;;;;5043965;28;20373;-73
2023/01/02 13:55:36;;;;;;;1.48;1.15;;;14.90;74.60;;;;;;5044095;28;20021;-73
2023/01/02 13:58:16;;;;;;;3.15;1.95;;;14.50;78.70;;;;;;5038054;28;20024;-74